Time;durP1;ratioP1;P1;durP2;ratioP2;P2;SDS_P1;SDS_P2;PMS_P1;PMS_P2;Temp;Humidity;BMP_temperature;BMP_pressure;BME280_temperature;BME280_humidity;BME280_pressure;Samples;Min_cycle;Max_cycle;Signal;HPM_P1;HPM_P2
2021/01/17 00:01:05;;;;;;;63.40;29.52;;;-0.90;99.90;;;;;;4973368;28;20130;-78
2021/01/17 00:03:31;;;;;;;62.20;33.65;;;-1.00;99.90;;;;;;4972219;28;20069;-77
2021/01/17 00:05:56;;;;;;;62.70;32.75;;;-1.00;99.90;;;;;;4973183;28;20403;-78
2021/01/17 00:08:22;;;;;;;63.38;32.65;;;-1.00;99.90;;;;;;4973228;28;20069;-78
2021/01/17 00:10:48;;;;;;;63.35;32.30;;;-0.90;99.90;;;;;;4973260;28;20027;-77
2021/01/17 00:13:14;;;;;;;65.45;33.28;;;-1.00;99.90;;;;;;4972809;28;20056;-78
2021/01/17 00:15:40;;;;;;;64.43;32.58;;;-1.10;99.90;;;;;;4971724;28;20050;-76
2021/01/17 00:18:09;;;;;;;61.35;31.40;;;-1.00;99.90;;;;;;4971723;28;20034;-77
2021/01/17 00:20:34;;;;;;;67.38;33.22;;;-1.10;99.90;;;;;;4973241;28;20476;-77
2021/01/17 00:23:02;;;;;;;67.97;33.65;;;-1.10;99.90;;;;;;4972928;28;20042;-77
2021/01/17 00:25:28;;;;;;;73.22;33.95;;;-1.10;99.90;;;;;;4972999;28;20510;-76
2021/01/17 00:27:55;;;;;;;70.53;35.17;;;-1.20;99.90;;;;;;4972693;28;20514;-76
2021/01/17 00:30:23;;;;;;;78.47;33.72;;;-1.20;99.90;;;;;;4973049;28;20031;-78
2021/01/17 00:32:54;;;;;;;63.63;33.35;;;-1.30;99.90;;;;;;4973016;28;20063;-76
2021/01/17 00:35:21;;;;;;;62.80;31.33;;;-1.30;99.90;;;;;;4972921;28;20023;-76
2021/01/17 00:37:51;;;;;;;69.55;32.90;;;-1.40;99.90;;;;;;4972790;28;20499;-78
2021/01/17 00:40:16;;;;;;;75.05;31.92;;;-1.40;99.90;;;;;;4973078;28;20441;-78
2021/01/17 00:42:46;;;;;;;73.25;31.80;;;-1.50;99.90;;;;;;4972352;28;20035;-77
2021/01/17 00:45:13;;;;;;;64.88;31.65;;;-1.50;99.90;;;;;;4971586;28;20540;-77
2021/01/17 00:47:46;;;;;;;61.35;31.63;;;-1.60;99.90;;;;;;4968207;28;20085;-78
2021/01/17 00:50:13;;;;;;;67.75;33.28;;;-1.60;99.90;;;;;;4973070;28;20406;-77
2021/01/17 00:52:39;;;;;;;63.90;31.65;;;-1.60;99.90;;;;;;4972617;28;20510;-78
2021/01/17 00:55:05;;;;;;;67.55;31.88;;;-1.60;99.90;;;;;;4975215;28;20183;-76
2021/01/17 00:57:31;;;;;;;60.90;31.60;;;-1.70;99.90;;;;;;4976455;28;20407;-77
2021/01/17 00:59:56;;;;;;;76.32;33.70;;;-1.70;99.90;;;;;;4975628;28;20027;-77
2021/01/17 01:02:22;;;;;;;79.03;34.92;;;-1.70;99.90;;;;;;4976768;28;20085;-77
2021/01/17 01:04:49;;;;;;;74.95;34.00;;;-1.70;99.90;;;;;;4976558;28;20042;-76
2021/01/17 01:07:15;;;;;;;73.82;35.25;;;-1.70;99.90;;;;;;4976299;28;20074;-76
2021/01/17 01:09:41;;;;;;;70.82;33.92;;;-1.70;99.90;;;;;;4976513;28;20122;-76
2021/01/17 01:12:07;;;;;;;68.78;34.42;;;-1.70;99.90;;;;;;4976131;28;20105;-76
2021/01/17 01:14:33;;;;;;;67.95;32.70;;;-1.70;99.90;;;;;;4976435;28;20026;-76
2021/01/17 01:16:58;;;;;;;66.60;33.17;;;-1.70;99.90;;;;;;4975025;28;20440;-76
2021/01/17 01:19:24;;;;;;;68.43;31.95;;;-1.70;99.90;;;;;;4975001;28;20487;-76
2021/01/17 01:21:50;;;;;;;64.85;31.58;;;-1.70;99.90;;;;;;4976368;28;20035;-76
2021/01/17 01:24:16;;;;;;;72.30;32.53;;;-1.60;99.90;;;;;;4976122;28;20415;-76
2021/01/17 01:26:43;;;;;;;66.68;33.28;;;-1.70;99.90;;;;;;4976043;28;20030;-76
2021/01/17 01:29:10;;;;;;;69.97;35.22;;;-1.60;99.90;;;;;;4976358;28;20022;-76
2021/01/17 01:31:37;;;;;;;80.90;36.35;;;-1.70;99.90;;;;;;4974839;28;20023;-76
2021/01/17 01:34:04;;;;;;;73.45;33.03;;;-1.60;99.90;;;;;;4976285;28;20674;-76
2021/01/17 01:36:33;;;;;;;74.65;35.83;;;-1.60;99.90;;;;;;4975944;28;20023;-76
2021/01/17 01:38:59;;;;;;;86.65;36.20;;;-1.60;99.90;;;;;;4976063;28;20038;-76
2021/01/17 01:41:29;;;;;;;79.65;35.90;;;-1.60;99.90;;;;;;4974158;28;20038;-76
2021/01/17 01:43:55;;;;;;;72.30;34.13;;;-1.60;99.90;;;;;;4974566;28;20190;-76
2021/01/17 01:46:23;;;;;;;77.05;34.92;;;-1.60;99.90;;;;;;4976364;28;20030;-75
2021/01/17 01:48:50;;;;;;;84.35;36.85;;;-1.60;99.90;;;;;;4975698;28;20117;-76
2021/01/17 01:51:22;;;;;;;82.57;36.83;;;-1.60;99.90;;;;;;4975518;28;20484;-76
2021/01/17 01:53:51;;;;;;;73.53;34.00;;;-1.60;99.90;;;;;;4975753;28;20027;-76
2021/01/17 01:56:16;;;;;;;80.82;37.47;;;-1.60;99.90;;;;;;4975476;28;20476;-76
2021/01/17 01:58:45;;;;;;;79.78;35.80;;;-1.60;99.90;;;;;;4975730;28;20034;-75
2021/01/17 02:01:11;;;;;;;75.60;35.08;;;-1.60;99.90;;;;;;4975659;28;20033;-76
2021/01/17 02:03:37;;;;;;;74.22;36.13;;;-1.60;99.90;;;;;;4974422;28;20101;-76
2021/01/17 02:06:11;;;;;;;78.80;34.75;;;-1.70;99.90;;;;;;4972788;28;20023;-76
2021/01/17 02:08:58;;;;;;;71.90;33.85;;;-1.70;99.90;;;;;;4970925;28;20023;-76
2021/01/17 02:11:42;;;;;;;77.22;35.40;;;-1.70;99.90;;;;;;4958572;28;20791;-77
2021/01/17 02:14:43;;;;;;;85.72;36.20;;;-1.70;99.90;;;;;;4973763;28;20030;-76
2021/01/17 02:17:13;;;;;;;82.82;36.53;;;-1.70;99.90;;;;;;4971359;28;20512;-76
2021/01/17 02:20:07;;;;;;;73.32;34.85;;;-1.70;99.90;;;;;;4974416;28;20031;-77
2021/01/17 02:22:48;;;;;;;72.15;33.55;;;-1.70;99.90;;;;;;4975303;28;20030;-76
2021/01/17 02:25:15;;;;;;;72.50;32.47;;;-1.60;99.90;;;;;;4973770;28;20035;-76
2021/01/17 02:27:43;;;;;;;78.97;36.13;;;-1.70;99.90;;;;;;4975126;28;20035;-76
2021/01/17 02:30:11;;;;;;;78.60;34.70;;;-1.70;99.90;;;;;;4975252;28;20046;-76
2021/01/17 02:32:45;;;;;;;71.20;34.35;;;-1.70;99.90;;;;;;4974767;28;20510;-76
2021/01/17 02:35:11;;;;;;;85.65;38.55;;;-1.70;99.90;;;;;;4974974;28;20029;-76
2021/01/17 02:37:46;;;;;;;77.38;37.30;;;-1.60;99.90;;;;;;4975154;28;20106;-76
2021/01/17 02:40:23;;;;;;;78.22;35.30;;;-1.70;99.90;;;;;;4973875;28;20082;-76
2021/01/17 02:42:49;;;;;;;68.38;34.15;;;-1.60;99.90;;;;;;4974685;28;20035;-76
2021/01/17 02:45:15;;;;;;;69.95;34.83;;;-1.60;99.90;;;;;;4974787;28;20031;-76
2021/01/17 02:47:41;;;;;;;70.78;32.75;;;-1.60;99.90;;;;;;4973584;28;20487;-76
2021/01/17 02:50:08;;;;;;;66.93;32.88;;;-1.60;99.90;;;;;;4973451;28;20035;-76
2021/01/17 02:52:55;;;;;;;71.85;32.72;;;-1.60;99.90;;;;;;4974445;28;20090;-76
2021/01/17 02:55:21;;;;;;;72.20;34.83;;;-1.60;99.90;;;;;;4974626;28;20054;-76
2021/01/17 02:57:50;;;;;;;74.97;32.33;;;-1.60;99.90;;;;;;4974518;28;20026;-76
2021/01/17 03:00:19;;;;;;;75.82;34.47;;;-1.50;99.90;;;;;;4972907;28;20035;-76
2021/01/17 03:02:47;;;;;;;70.80;31.48;;;-1.50;99.90;;;;;;4957443;28;20407;-76
2021/01/17 03:05:17;;;;;;;63.63;31.67;;;-1.60;99.90;;;;;;4973214;28;20026;-76
2021/01/17 03:07:55;;;;;;;76.30;32.72;;;-1.60;99.90;;;;;;4974291;28;20023;-76
2021/01/17 03:10:23;;;;;;;69.05;32.17;;;-1.50;99.90;;;;;;4974469;28;20027;-76
2021/01/17 03:12:49;;;;;;;70.25;32.38;;;-1.60;99.90;;;;;;4974053;28;20114;-76
2021/01/17 03:15:16;;;;;;;70.38;33.55;;;-1.60;99.90;;;;;;4972999;28;20513;-76
2021/01/17 03:17:42;;;;;;;77.13;34.33;;;-1.60;99.90;;;;;;4972469;28;20031;-76
2021/01/17 03:20:07;;;;;;;56.00;29.40;;;-1.60;99.90;;;;;;4974323;28;20101;-76
2021/01/17 03:22:34;;;;;;;61.42;31.77;;;-1.60;99.90;;;;;;4974166;28;20483;-76
2021/01/17 03:24:59;;;;;;;60.13;29.58;;;-1.60;99.90;;;;;;4972749;28;20506;-76
2021/01/17 03:27:25;;;;;;;68.53;33.20;;;-1.60;99.90;;;;;;4974250;28;20066;-76
2021/01/17 03:29:51;;;;;;;65.05;32.00;;;-1.50;99.90;;;;;;4974118;28;20052;-77
2021/01/17 03:32:16;;;;;;;75.53;33.83;;;-1.50;99.90;;;;;;4972880;28;20655;-76
2021/01/17 03:34:48;;;;;;;63.88;31.70;;;-1.50;99.90;;;;;;4973636;28;20085;-76
2021/01/17 03:37:16;;;;;;;68.32;32.15;;;-1.50;99.90;;;;;;4974051;28;20027;-76
2021/01/17 03:39:42;;;;;;;66.07;33.47;;;-1.50;99.90;;;;;;4973057;28;20510;-76
2021/01/17 03:42:08;;;;;;;61.33;31.58;;;-1.50;99.90;;;;;;4973150;28;20062;-77
2021/01/17 03:44:33;;;;;;;66.70;32.38;;;-1.50;99.90;;;;;;4973555;28;20491;-76
2021/01/17 03:46:59;;;;;;;74.38;34.35;;;-1.50;99.90;;;;;;4972559;28;20086;-77
2021/01/17 03:49:24;;;;;;;69.70;34.10;;;-1.50;99.90;;;;;;4972559;28;20026;-76
2021/01/17 03:51:50;;;;;;;75.68;34.17;;;-1.50;99.90;;;;;;4973379;28;20037;-76
2021/01/17 03:54:15;;;;;;;73.15;34.30;;;-1.40;99.90;;;;;;4973447;28;20484;-77
2021/01/17 03:56:41;;;;;;;64.70;31.58;;;-1.50;99.90;;;;;;4969024;28;20510;-76
2021/01/17 03:59:06;;;;;;;65.20;33.65;;;-1.40;99.90;;;;;;4954336;29;20027;-76
2021/01/17 04:01:32;;;;;;;69.00;32.22;;;-1.40;99.90;;;;;;4954249;28;20546;-76
2021/01/17 04:03:58;;;;;;;70.75;33.50;;;-1.40;99.90;;;;;;4971330;28;20510;-76
2021/01/17 04:06:27;;;;;;;72.97;35.13;;;-1.40;99.90;;;;;;4973475;28;20392;-76
2021/01/17 04:08:52;;;;;;;71.60;35.00;;;-1.40;99.90;;;;;;4973345;28;20399;-76
2021/01/17 04:11:18;;;;;;;76.00;34.65;;;-1.40;99.90;;;;;;4972912;28;20034;-76
2021/01/17 04:13:43;;;;;;;67.25;33.58;;;-1.40;99.90;;;;;;4972060;28;20034;-76
2021/01/17 04:16:09;;;;;;;76.38;34.63;;;-1.40;99.90;;;;;;4971542;28;20494;-76
2021/01/17 04:18:35;;;;;;;73.53;35.03;;;-1.40;99.90;;;;;;4972064;28;20081;-76
2021/01/17 04:21:00;;;;;;;68.00;33.40;;;-1.40;99.90;;;;;;4957038;28;20034;-77
2021/01/17 04:23:26;;;;;;;69.80;33.50;;;-1.40;99.90;;;;;;4953896;28;20023;-76
2021/01/17 04:25:51;;;;;;;73.78;32.78;;;-1.40;99.90;;;;;;4953835;29;20023;-76
2021/01/17 04:28:17;;;;;;;67.88;33.28;;;-1.40;99.90;;;;;;4970676;28;20085;-76
2021/01/17 04:30:43;;;;;;;72.82;35.13;;;-1.40;99.90;;;;;;4973106;28;20031;-76
2021/01/17 04:33:08;;;;;;;70.55;31.83;;;-1.40;99.90;;;;;;4973047;28;20109;-76
2021/01/17 04:35:34;;;;;;;66.63;32.00;;;-1.50;99.90;;;;;;4972971;28;20497;-76
2021/01/17 04:38:00;;;;;;;72.97;32.42;;;-1.50;99.90;;;;;;4972829;28;20034;-76
2021/01/17 04:40:27;;;;;;;68.88;33.28;;;-1.60;99.90;;;;;;4988088;28;20031;-76
2021/01/17 04:43:22;;;;;;;77.93;34.65;;;-1.60;99.90;;;;;;4972560;28;20399;-76
2021/01/17 04:45:49;;;;;;;76.75;34.22;;;-1.60;99.90;;;;;;4972885;28;20030;-76
2021/01/17 04:48:16;;;;;;;71.32;34.22;;;-1.70;99.90;;;;;;4972816;28;20550;-76
2021/01/17 04:50:46;;;;;;;77.13;37.53;;;-1.60;99.90;;;;;;4973037;28;20495;-76
2021/01/17 04:53:12;;;;;;;89.15;38.15;;;-1.70;99.90;;;;;;4972606;28;20130;-76
2021/01/17 04:55:39;;;;;;;77.50;36.47;;;-1.70;99.90;;;;;;4972737;28;20078;-76
2021/01/17 04:58:07;;;;;;;75.68;36.30;;;-1.70;99.90;;;;;;4968241;28;20396;-76
2021/01/17 05:00:33;;;;;;;78.32;36.28;;;-1.70;99.90;;;;;;4952414;28;20050;-76
2021/01/17 05:03:36;;;;;;;82.38;37.70;;;-1.70;99.90;;;;;;4953453;28;20030;-76
2021/01/17 05:06:13;;;;;;;75.00;36.95;;;-1.70;99.90;;;;;;4953679;28;20027;-76
2021/01/17 05:08:44;;;;;;;73.28;36.17;;;-1.70;99.90;;;;;;4971867;28;20142;-76
2021/01/17 05:11:32;;;;;;;80.47;36.78;;;-1.70;99.90;;;;;;4972404;28;20484;-76
2021/01/17 05:14:21;;;;;;;74.07;35.03;;;-1.70;99.90;;;;;;4971541;28;20033;-76
2021/01/17 05:16:47;;;;;;;80.93;38.78;;;-1.70;99.90;;;;;;4972563;28;20066;-76
2021/01/17 05:19:18;;;;;;;80.40;37.92;;;-1.70;99.90;;;;;;4972687;28;20065;-76
2021/01/17 05:21:49;;;;;;;72.65;33.60;;;-1.70;99.90;;;;;;4972286;28;20023;-76
2021/01/17 05:24:17;;;;;;;78.80;35.28;;;-1.70;99.90;;;;;;4972598;28;20038;-77
2021/01/17 05:26:53;;;;;;;78.72;37.80;;;-1.70;99.90;;;;;;4972497;28;20027;-76
2021/01/17 05:29:20;;;;;;;75.10;37.22;;;-1.70;99.90;;;;;;4972691;28;20035;-76
2021/01/17 05:31:53;;;;;;;84.70;39.03;;;-1.70;99.90;;;;;;4972485;28;20090;-76
2021/01/17 05:34:19;;;;;;;77.38;37.22;;;-1.60;99.90;;;;;;4987323;28;20022;-76
2021/01/17 05:36:46;;;;;;;68.43;33.78;;;-1.60;99.90;;;;;;4972335;28;20443;-76
2021/01/17 05:39:12;;;;;;;77.47;38.13;;;-1.60;99.90;;;;;;4972579;28;20031;-75
2021/01/17 05:41:37;;;;;;;74.18;36.85;;;-1.50;99.90;;;;;;4975333;28;20081;-76
2021/01/17 05:44:03;;;;;;;71.13;36.38;;;-1.50;99.90;;;;;;4975902;28;20027;-76
2021/01/17 05:46:28;;;;;;;83.97;37.13;;;-1.50;99.90;;;;;;4976078;28;20434;-76
2021/01/17 05:49:11;;;;;;;80.75;36.30;;;-1.50;99.90;;;;;;4975773;28;20475;-76
2021/01/17 05:51:37;;;;;;;77.07;35.90;;;-1.40;99.90;;;;;;4975871;28;20119;-76
2021/01/17 05:54:07;;;;;;;68.93;34.22;;;-1.40;99.90;;;;;;4990793;28;20494;-76
2021/01/17 05:56:35;;;;;;;71.03;36.30;;;-1.40;99.90;;;;;;4975591;28;20149;-76
2021/01/17 05:59:00;;;;;;;76.72;35.08;;;-1.40;99.90;;;;;;4974491;28;20085;-76
2021/01/17 06:01:27;;;;;;;72.25;34.47;;;-1.40;99.90;;;;;;4975618;28;20038;-75
2021/01/17 06:03:54;;;;;;;70.40;34.72;;;-1.40;99.90;;;;;;4975637;28;20031;-76
2021/01/17 06:06:27;;;;;;;81.28;35.88;;;-1.40;99.90;;;;;;4975788;28;20380;-76
2021/01/17 06:08:55;;;;;;;73.78;37.30;;;-1.40;99.90;;;;;;4990534;28;20109;-77
2021/01/17 06:11:21;;;;;;;77.28;37.95;;;-1.40;99.90;;;;;;4975188;28;20046;-76
2021/01/17 06:13:57;;;;;;;76.38;36.15;;;-1.40;99.90;;;;;;4975357;28;20035;-77
2021/01/17 06:16:31;;;;;;;69.63;35.78;;;-1.40;99.90;;;;;;4975409;28;20052;-77
2021/01/17 06:18:59;;;;;;;78.80;37.40;;;-1.40;99.90;;;;;;4975521;28;20027;-76
2021/01/17 06:21:26;;;;;;;80.68;38.65;;;-1.30;99.90;;;;;;4975390;28;20078;-76
2021/01/17 06:23:56;;;;;;;70.50;35.42;;;-1.30;99.90;;;;;;4975158;28;20521;-77
2021/01/17 06:26:27;;;;;;;80.22;36.70;;;-1.30;99.90;;;;;;4975015;28;20059;-76
2021/01/17 06:28:53;;;;;;;69.57;36.50;;;-1.20;99.90;;;;;;4975025;28;20026;-76
2021/01/17 06:31:28;;;;;;;75.40;35.67;;;-1.30;99.90;;;;;;4990056;28;20038;-76
2021/01/17 06:34:14;;;;;;;66.47;33.97;;;-1.30;99.90;;;;;;4975120;28;20026;-76
2021/01/17 06:36:46;;;;;;;81.22;36.55;;;-1.30;99.90;;;;;;4955925;28;20496;-76
2021/01/17 06:39:23;;;;;;;69.95;34.03;;;-1.30;99.90;;;;;;4965245;28;20027;-76
2021/01/17 06:41:53;;;;;;;77.28;33.95;;;-1.30;99.90;;;;;;4973452;28;20027;-75
2021/01/17 06:44:30;;;;;;;82.63;36.67;;;-1.30;99.90;;;;;;4974720;28;20031;-76
2021/01/17 06:46:56;;;;;;;74.63;37.55;;;-1.30;99.90;;;;;;4975086;28;20503;-76
2021/01/17 06:49:32;;;;;;;81.88;37.85;;;-1.30;99.90;;;;;;4974960;28;20482;-76
2021/01/17 06:52:02;;;;;;;73.70;35.08;;;-1.30;99.90;;;;;;4972552;28;20027;-76
2021/01/17 06:54:33;;;;;;;74.78;37.92;;;-1.30;99.90;;;;;;4974484;28;20042;-76
2021/01/17 06:57:00;;;;;;;77.72;38.75;;;-1.30;99.90;;;;;;4973346;28;20034;-76
2021/01/17 06:59:46;;;;;;;86.72;38.33;;;-1.30;99.90;;;;;;4974832;28;20135;-76
2021/01/17 07:02:17;;;;;;;79.05;36.10;;;-1.40;99.90;;;;;;4974322;28;20109;-76
2021/01/17 07:04:52;;;;;;;76.65;38.88;;;-1.40;99.90;;;;;;4974494;28;20035;-76
2021/01/17 07:07:54;;;;;;;82.57;37.15;;;-1.40;99.90;;;;;;4974591;28;20062;-76
2021/01/17 07:10:24;;;;;;;79.20;35.63;;;-1.40;99.90;;;;;;4973274;28;20042;-76
2021/01/17 07:13:06;;;;;;;78.55;37.33;;;-1.40;99.90;;;;;;4972737;28;20042;-76
2021/01/17 07:15:34;;;;;;;80.47;37.65;;;-1.40;99.90;;;;;;4974018;28;20113;-76
2021/01/17 07:18:02;;;;;;;79.32;38.00;;;-1.40;99.90;;;;;;4974382;28;20034;-76
2021/01/17 07:20:34;;;;;;;77.80;37.60;;;-1.40;99.90;;;;;;4974142;28;20031;-76
2021/01/17 07:23:01;;;;;;;82.13;39.13;;;-1.40;99.90;;;;;;4973062;28;20056;-76
2021/01/17 07:25:29;;;;;;;86.80;38.78;;;-1.40;99.90;;;;;;4974073;28;20023;-76
2021/01/17 07:28:08;;;;;;;75.75;38.42;;;-1.40;99.90;;;;;;4973833;28;20023;-76
2021/01/17 07:31:00;;;;;;;80.53;39.38;;;-1.40;99.90;;;;;;4974224;28;20399;-76
2021/01/17 07:33:37;;;;;;;78.47;37.55;;;-1.30;99.90;;;;;;4974043;28;20081;-76
2021/01/17 07:36:08;;;;;;;83.68;38.20;;;-1.30;99.90;;;;;;4972755;28;20494;-77
2021/01/17 07:38:39;;;;;;;84.38;38.92;;;-1.30;99.90;;;;;;4972541;28;20114;-76
2021/01/17 07:41:09;;;;;;;75.90;36.47;;;-1.30;99.90;;;;;;4972681;28;20022;-76
2021/01/17 07:43:42;;;;;;;85.07;39.70;;;-1.20;99.90;;;;;;4973877;28;20801;-76
2021/01/17 07:46:10;;;;;;;76.38;37.17;;;-1.20;99.90;;;;;;4973855;28;20109;-76
2021/01/17 07:48:36;;;;;;;80.18;38.72;;;-1.20;99.90;;;;;;4988562;28;20034;-76
2021/01/17 07:51:04;;;;;;;77.63;38.58;;;-1.10;99.90;;;;;;4973895;28;20023;-76
2021/01/17 07:53:41;;;;;;;79.93;36.90;;;-1.10;99.90;;;;;;4973677;28;20118;-76
2021/01/17 07:56:25;;;;;;;77.32;35.80;;;-1.10;99.90;;;;;;4973288;28;20042;-76
2021/01/17 07:58:52;;;;;;;76.20;36.80;;;-1.10;99.90;;;;;;4973740;28;20031;-76
2021/01/17 08:01:35;;;;;;;74.65;34.38;;;-1.10;99.90;;;;;;4971652;28;20022;-76
2021/01/17 08:04:16;;;;;;;81.23;38.00;;;-1.00;99.90;;;;;;4973220;28;20019;-77
2021/01/17 08:06:41;;;;;;;71.97;35.60;;;-1.00;99.90;;;;;;4972902;28;20022;-76
2021/01/17 08:09:17;;;;;;;76.43;36.97;;;-1.00;99.90;;;;;;4973267;28;20500;-76
2021/01/17 08:11:56;;;;;;;76.28;36.92;;;-1.00;99.90;;;;;;4973109;28;20062;-76
2021/01/17 08:14:34;;;;;;;72.20;35.92;;;-0.90;99.90;;;;;;4971904;28;20470;-76
2021/01/17 08:17:12;;;;;;;75.03;36.90;;;-0.90;99.90;;;;;;4973105;28;20026;-76
2021/01/17 08:19:52;;;;;;;75.00;35.10;;;-0.80;99.90;;;;;;4973247;28;20023;-77
2021/01/17 08:22:18;;;;;;;74.68;37.33;;;-0.80;99.90;;;;;;4972945;28;20031;-76
2021/01/17 08:24:47;;;;;;;73.22;37.05;;;-0.80;99.90;;;;;;4972958;28;20058;-76
2021/01/17 08:27:31;;;;;;;88.72;35.33;;;-0.80;99.90;;;;;;4973001;28;20106;-75
2021/01/17 08:30:03;;;;;;;66.32;35.83;;;-0.80;99.90;;;;;;4971851;28;20054;-76
2021/01/17 08:32:43;;;;;;;77.40;36.17;;;-0.70;99.90;;;;;;4971724;28;20039;-76
2021/01/17 08:35:30;;;;;;;67.18;35.83;;;-0.70;99.90;;;;;;4973007;28;20019;-75
2021/01/17 08:38:16;;;;;;;69.78;35.03;;;-0.70;99.90;;;;;;4968383;28;20031;-76
2021/01/17 08:40:44;;;;;;;67.05;32.92;;;-0.70;99.90;;;;;;4953761;28;20031;-76
2021/01/17 08:43:15;;;;;;;70.50;36.30;;;-0.60;99.90;;;;;;4969771;28;20038;-76
2021/01/17 08:45:43;;;;;;;70.32;34.70;;;-0.60;99.90;;;;;;4971671;28;20483;-76
2021/01/17 08:48:14;;;;;;;70.88;34.35;;;-0.60;99.90;;;;;;4972879;28;20030;-75
2021/01/17 08:50:40;;;;;;;74.93;36.72;;;-0.60;99.90;;;;;;4971689;28;20033;-76
2021/01/17 08:53:09;;;;;;;79.00;34.55;;;-0.60;99.90;;;;;;4972654;28;20105;-77
2021/01/17 08:55:47;;;;;;;75.43;34.50;;;-0.60;99.90;;;;;;4971392;28;20027;-76
2021/01/17 08:58:36;;;;;;;65.88;33.47;;;-0.50;99.90;;;;;;4972682;28;20151;-76
2021/01/17 09:01:08;;;;;;;69.57;36.05;;;-0.50;99.90;;;;;;4965530;28;20031;-76
2021/01/17 09:03:36;;;;;;;79.72;38.60;;;-0.50;99.90;;;;;;4971622;28;20114;-76
2021/01/17 09:06:26;;;;;;;71.95;34.08;;;-0.50;99.90;;;;;;4970827;28;20085;-77
2021/01/17 09:08:54;;;;;;;77.53;35.83;;;-0.50;99.90;;;;;;4946105;29;20402;-77
2021/01/17 09:11:29;;;;;;;63.25;32.85;;;-0.50;99.90;;;;;;4953184;28;20126;-76
2021/01/17 09:14:24;;;;;;;70.13;33.67;;;-0.40;99.90;;;;;;4972457;28;20077;-76
2021/01/17 09:17:01;;;;;;;73.63;36.75;;;-0.40;99.90;;;;;;4976031;28;20098;-75
2021/01/17 09:19:29;;;;;;;69.32;34.92;;;-0.40;99.90;;;;;;4976325;28;20030;-76
2021/01/17 09:21:56;;;;;;;70.15;36.15;;;-0.30;99.90;;;;;;4991310;28;20514;-76
2021/01/17 09:24:24;;;;;;;73.22;35.63;;;-0.20;99.90;;;;;;4974897;28;20502;-76
2021/01/17 09:26:52;;;;;;;64.40;34.88;;;-0.20;99.90;;;;;;4974888;28;20499;-76
2021/01/17 09:29:27;;;;;;;67.47;34.05;;;-0.20;99.90;;;;;;4976315;28;20035;-76
2021/01/17 09:31:55;;;;;;;68.18;33.97;;;-0.10;99.90;;;;;;4976032;28;20066;-76
2021/01/17 09:34:23;;;;;;;70.53;34.70;;;-0.10;99.90;;;;;;4975938;28;20109;-76
2021/01/17 09:36:49;;;;;;;66.07;35.03;;;0.00;99.90;;;;;;4981890;28;20030;-77
2021/01/17 09:39:26;;;;;;;67.50;36.80;;;0.00;99.90;;;;;;4976022;28;20027;-77
2021/01/17 09:41:52;;;;;;;77.20;35.60;;;0.00;99.90;;;;;;4979421;28;20023;-76
2021/01/17 09:44:18;;;;;;;67.07;32.92;;;0.00;99.90;;;;;;4954998;29;20109;-77
2021/01/17 09:46:44;;;;;;;70.03;34.75;;;0.00;99.90;;;;;;4955229;29;20066;-78
2021/01/17 09:49:09;;;;;;;62.10;33.13;;;0.10;99.90;;;;;;4956730;29;20023;-77
2021/01/17 09:51:35;;;;;;;65.85;32.70;;;0.10;99.90;;;;;;4956904;28;20087;-77
2021/01/17 09:54:01;;;;;;;67.70;33.10;;;0.10;99.90;;;;;;4975385;28;20023;-78
2021/01/17 09:56:27;;;;;;;59.17;30.25;;;0.10;99.90;;;;;;4974474;28;20043;-77
2021/01/17 09:58:53;;;;;;;57.00;33.42;;;0.20;99.90;;;;;;4975569;28;20030;-77
2021/01/17 10:01:20;;;;;;;59.72;32.05;;;0.30;99.90;;;;;;4974501;28;20078;-77
2021/01/17 10:03:49;;;;;;;64.53;32.80;;;0.40;99.90;;;;;;4970853;28;20121;-78
2021/01/17 10:06:16;;;;;;;56.70;30.20;;;0.40;99.90;;;;;;4954910;29;20035;-76
2021/01/17 10:08:42;;;;;;;57.15;30.80;;;0.40;99.90;;;;;;4956491;28;20030;-78
2021/01/17 10:11:07;;;;;;;56.75;29.40;;;0.50;99.90;;;;;;4975408;28;20058;-77
2021/01/17 10:13:33;;;;;;;61.00;30.90;;;0.60;99.90;;;;;;4973855;28;20061;-78
2021/01/17 10:15:59;;;;;;;55.92;30.58;;;0.70;99.90;;;;;;4975371;28;20058;-78
2021/01/17 10:18:25;;;;;;;59.45;29.52;;;0.70;99.90;;;;;;4974200;28;20086;-77
2021/01/17 10:20:55;;;;;;;59.10;30.55;;;0.70;99.90;;;;;;4975174;28;20027;-77
2021/01/17 10:23:31;;;;;;;55.25;30.80;;;0.80;99.90;;;;;;4974117;28;20085;-76
2021/01/17 10:25:57;;;;;;;53.75;27.80;;;0.80;99.90;;;;;;4974558;28;20031;-78
2021/01/17 10:28:26;;;;;;;56.53;31.58;;;0.80;99.90;;;;;;4972971;28;20403;-77
2021/01/17 10:30:59;;;;;;;56.53;29.45;;;1.00;99.90;;;;;;4990172;28;20487;-76
2021/01/17 10:33:28;;;;;;;51.72;28.83;;;1.00;99.90;;;;;;4974986;28;20038;-77
2021/01/17 10:35:53;;;;;;;59.38;28.65;;;0.90;99.90;;;;;;4974927;28;20039;-77
2021/01/17 10:38:20;;;;;;;55.55;28.92;;;0.90;99.90;;;;;;4974777;28;20487;-78
2021/01/17 10:40:47;;;;;;;52.85;29.92;;;0.90;99.90;;;;;;4970588;28;20050;-75
2021/01/17 10:43:22;;;;;;;49.20;28.42;;;0.90;99.90;;;;;;4971568;28;20031;-77
2021/01/17 10:46:11;;;;;;;59.33;30.05;;;1.00;99.90;;;;;;4959588;28;20150;-77
2021/01/17 10:48:52;;;;;;;59.00;30.25;;;1.10;99.90;;;;;;4973543;28;20038;-77
2021/01/17 10:51:26;;;;;;;49.55;28.58;;;1.20;99.90;;;;;;4974499;28;20030;-76
2021/01/17 10:53:52;;;;;;;56.85;29.08;;;1.20;99.90;;;;;;4973192;28;20078;-77
2021/01/17 10:56:21;;;;;;;56.78;27.23;;;1.20;99.90;;;;;;4974324;28;20471;-77
2021/01/17 10:58:48;;;;;;;49.63;28.02;;;1.30;99.90;;;;;;4974742;28;20058;-77
2021/01/17 11:01:14;;;;;;;48.63;26.75;;;1.20;99.90;;;;;;4974265;28;20026;-77
2021/01/17 11:03:42;;;;;;;57.97;29.15;;;1.20;99.90;;;;;;4974291;28;20538;-76
2021/01/17 11:06:16;;;;;;;48.47;26.23;;;1.10;99.90;;;;;;4974518;28;20058;-76
2021/01/17 11:08:55;;;;;;;46.38;24.70;;;1.10;99.90;;;;;;4974136;28;20026;-76
2021/01/17 11:11:41;;;;;;;55.65;27.38;;;1.10;99.90;;;;;;4973929;28;20084;-76
2021/01/17 11:14:06;;;;;;;51.88;24.42;;;1.20;99.90;;;;;;4973894;28;20114;-76
2021/01/17 11:16:50;;;;;;;47.15;25.77;;;1.20;99.90;;;;;;4975641;28;20130;-77
2021/01/17 11:19:16;;;;;;;45.53;22.90;;;1.20;99.90;;;;;;4993599;28;20047;-76
2021/01/17 11:21:43;;;;;;;50.63;25.30;;;1.30;99.90;;;;;;4993436;28;20058;-77
2021/01/17 11:24:09;;;;;;;49.33;26.48;;;1.20;99.90;;;;;;4987275;28;20070;-77
2021/01/17 11:26:38;;;;;;;44.03;24.02;;;1.20;99.90;;;;;;4973940;28;20031;-77
2021/01/17 11:29:07;;;;;;;47.35;26.08;;;1.20;99.90;;;;;;4974153;28;20030;-77
2021/01/17 11:31:35;;;;;;;51.08;24.80;;;1.20;99.90;;;;;;4968983;28;20055;-77
2021/01/17 11:34:14;;;;;;;46.90;25.95;;;1.30;99.90;;;;;;4954592;28;20039;-77
2021/01/17 11:36:40;;;;;;;45.33;27.05;;;1.30;99.90;;;;;;4953330;29;20449;-76
2021/01/17 11:39:06;;;;;;;45.70;25.15;;;1.30;99.90;;;;;;4959352;28;20047;-77
2021/01/17 11:41:39;;;;;;;49.67;26.48;;;1.30;99.90;;;;;;4972449;28;20063;-77
2021/01/17 11:44:09;;;;;;;46.97;26.05;;;1.30;99.90;;;;;;4971067;28;20118;-77
2021/01/17 11:46:34;;;;;;;45.55;25.27;;;1.30;99.90;;;;;;4972879;28;20030;-76
2021/01/17 11:49:00;;;;;;;47.38;25.45;;;1.20;99.90;;;;;;4970329;28;20026;-76
2021/01/17 11:51:26;;;;;;;43.67;24.65;;;1.20;99.90;;;;;;4972618;28;20092;-76
2021/01/17 11:53:51;;;;;;;46.83;25.70;;;1.20;99.90;;;;;;4972088;28;20027;-77
2021/01/17 11:56:17;;;;;;;44.92;25.20;;;1.20;99.90;;;;;;4972662;28;20074;-76
2021/01/17 11:58:43;;;;;;;42.83;24.65;;;1.20;99.90;;;;;;4972743;28;20023;-76
2021/01/17 12:01:09;;;;;;;40.05;23.65;;;1.20;99.90;;;;;;4972220;28;20422;-76
2021/01/17 12:03:38;;;;;;;46.78;25.13;;;1.30;99.90;;;;;;4972544;28;20034;-76
2021/01/17 12:06:11;;;;;;;46.47;24.08;;;1.30;99.90;;;;;;4971118;28;20049;-76
2021/01/17 12:08:55;;;;;;;44.25;23.58;;;1.30;99.90;;;;;;4972452;28;20023;-76
2021/01/17 12:11:44;;;;;;;39.65;22.55;;;1.30;99.90;;;;;;4971699;28;20507;-77
2021/01/17 12:14:16;;;;;;;38.83;22.70;;;1.20;99.90;;;;;;4971923;28;20453;-76
2021/01/17 12:16:53;;;;;;;43.42;22.35;;;1.20;99.90;;;;;;4973137;28;20015;-76
2021/01/17 12:19:19;;;;;;;43.63;23.80;;;1.20;99.90;;;;;;4968838;28;20160;-76
2021/01/17 12:21:45;;;;;;;44.10;23.33;;;1.20;99.90;;;;;;4969927;28;20126;-75
2021/01/17 12:24:13;;;;;;;42.65;22.95;;;1.20;99.90;;;;;;4971158;28;20692;-76
2021/01/17 12:26:40;;;;;;;41.33;22.98;;;1.30;99.90;;;;;;4972697;28;20022;-76
2021/01/17 12:29:06;;;;;;;38.83;19.50;;;1.30;99.90;;;;;;4972819;28;20026;-76
2021/01/17 12:31:33;;;;;;;42.50;22.33;;;1.30;99.90;;;;;;4972760;28;20038;-76
2021/01/17 12:33:59;;;;;;;46.05;24.17;;;1.30;99.90;;;;;;4972596;28;20109;-76
2021/01/17 12:36:27;;;;;;;42.10;22.88;;;1.20;99.90;;;;;;4971414;28;20570;-76
2021/01/17 12:38:53;;;;;;;38.00;21.90;;;1.10;99.90;;;;;;4972936;28;20034;-76
2021/01/17 12:41:26;;;;;;;43.90;22.88;;;1.00;99.90;;;;;;4972501;28;20026;-76
2021/01/17 12:43:52;;;;;;;44.10;24.95;;;1.00;99.90;;;;;;4971357;28;20451;-75